sensor_id;sensor_type;location;lat;lon;timestamp;P1;durP1;ratioP1;P2;durP2;ratioP2
44078;SDS011;29744;49.078;12.878;2023-07-13T00:01:36;1.20;;;0.75;;
44078;SDS011;29744;49.078;12.878;2023-07-13T00:06:38;0.95;;;0.70;;
44078;SDS011;29744;49.078;12.878;2023-07-13T00:11:39;0.60;;;0.60;;
44078;SDS011;29744;49.078;12.878;2023-07-13T00:16:40;0.90;;;0.60;;
44078;SDS011;29744;49.078;12.878;2023-07-13T00:21:43;0.93;;;0.63;;
44078;SDS011;29744;49.078;12.878;2023-07-13T00:26:44;0.90;;;0.60;;
44078;SDS011;29744;49.078;12.878;2023-07-13T00:31:45;0.93;;;0.60;;
44078;SDS011;29744;49.078;12.878;2023-07-13T00:36:46;0.85;;;0.70;;
44078;SDS011;29744;49.078;12.878;2023-07-13T00:41:46;0.93;;;0.70;;
44078;SDS011;29744;49.078;12.878;2023-07-13T00:46:46;0.68;;;0.60;;
44078;SDS011;29744;49.078;12.878;2023-07-13T00:51:48;0.93;;;0.70;;
44078;SDS011;29744;49.078;12.878;2023-07-13T00:56:51;0.73;;;0.60;;
44078;SDS011;29744;49.078;12.878;2023-07-13T01:01:53;0.75;;;0.63;;
44078;SDS011;29744;49.078;12.878;2023-07-13T01:06:54;0.98;;;0.60;;
44078;SDS011;29744;49.078;12.878;2023-07-13T01:11:56;1.02;;;0.60;;
44078;SDS011;29744;49.078;12.878;2023-07-13T01:16:57;1.17;;;0.70;;
44078;SDS011;29744;49.078;12.878;2023-07-13T01:22:00;0.57;;;0.57;;
44078;SDS011;29744;49.078;12.878;2023-07-13T01:27:00;1.15;;;0.55;;
44078;SDS011;29744;49.078;12.878;2023-07-13T01:32:00;0.80;;;0.70;;
44078;SDS011;29744;49.078;12.878;2023-07-13T01:37:01;1.27;;;0.55;;
44078;SDS011;29744;49.078;12.878;2023-07-13T01:42:01;1.20;;;0.77;;
44078;SDS011;29744;49.078;12.878;2023-07-13T01:47:02;0.93;;;0.70;;
44078;SDS011;29744;49.078;12.878;2023-07-13T01:52:02;0.80;;;0.60;;
44078;SDS011;29744;49.078;12.878;2023-07-13T01:57:03;0.90;;;0.70;;
44078;SDS011;29744;49.078;12.878;2023-07-13T02:02:03;0.70;;;0.55;;
44078;SDS011;29744;49.078;12.878;2023-07-13T02:07:04;1.50;;;0.60;;
44078;SDS011;29744;49.078;12.878;2023-07-13T02:12:05;0.90;;;0.60;;
44078;SDS011;29744;49.078;12.878;2023-07-13T02:17:05;0.70;;;0.60;;
44078;SDS011;29744;49.078;12.878;2023-07-13T02:22:06;0.98;;;0.60;;
44078;SDS011;29744;49.078;12.878;2023-07-13T02:27:06;0.90;;;0.60;;
44078;SDS011;29744;49.078;12.878;2023-07-13T02:32:07;0.77;;;0.60;;
44078;SDS011;29744;49.078;12.878;2023-07-13T02:37:07;0.77;;;0.60;;
44078;SDS011;29744;49.078;12.878;2023-07-13T02:42:08;0.80;;;0.47;;
44078;SDS011;29744;49.078;12.878;2023-07-13T02:47:08;0.73;;;0.60;;
44078;SDS011;29744;49.078;12.878;2023-07-13T02:52:08;0.90;;;0.52;;
44078;SDS011;29744;49.078;12.878;2023-07-13T02:57:08;0.93;;;0.60;;
44078;SDS011;29744;49.078;12.878;2023-07-13T03:02:09;0.60;;;0.50;;
44078;SDS011;29744;49.078;12.878;2023-07-13T03:07:09;1.05;;;0.70;;
44078;SDS011;29744;49.078;12.878;2023-07-13T03:12:10;0.60;;;0.40;;
44078;SDS011;29744;49.078;12.878;2023-07-13T03:17:10;0.63;;;0.50;;
44078;SDS011;29744;49.078;12.878;2023-07-13T03:22:10;0.50;;;0.50;;
44078;SDS011;29744;49.078;12.878;2023-07-13T03:27:11;1.00;;;0.70;;
44078;SDS011;29744;49.078;12.878;2023-07-13T03:32:11;0.73;;;0.60;;
44078;SDS011;29744;49.078;12.878;2023-07-13T03:37:12;0.95;;;0.60;;
44078;SDS011;29744;49.078;12.878;2023-07-13T03:42:12;1.50;;;0.80;;
44078;SDS011;29744;49.078;12.878;2023-07-13T03:47:12;0.73;;;0.60;;
44078;SDS011;29744;49.078;12.878;2023-07-13T03:52:13;0.80;;;0.68;;
44078;SDS011;29744;49.078;12.878;2023-07-13T03:57:13;0.60;;;0.60;;
44078;SDS011;29744;49.078;12.878;2023-07-13T04:02:13;0.70;;;0.60;;
44078;SDS011;29744;49.078;12.878;2023-07-13T04:07:13;1.00;;;0.63;;
44078;SDS011;29744;49.078;12.878;2023-07-13T04:12:14;0.90;;;0.60;;
44078;SDS011;29744;49.078;12.878;2023-07-13T04:17:15;0.65;;;0.50;;
44078;SDS011;29744;49.078;12.878;2023-07-13T04:22:15;0.70;;;0.60;;
44078;SDS011;29744;49.078;12.878;2023-07-13T04:27:15;0.50;;;0.50;;
44078;SDS011;29744;49.078;12.878;2023-07-13T04:32:15;0.90;;;0.63;;
44078;SDS011;29744;49.078;12.878;2023-07-13T04:37:16;0.75;;;0.50;;
44078;SDS011;29744;49.078;12.878;2023-07-13T04:42:16;1.30;;;0.70;;
44078;SDS011;29744;49.078;12.878;2023-07-13T04:47:19;0.95;;;0.63;;
44078;SDS011;29744;49.078;12.878;2023-07-13T04:52:20;0.60;;;0.60;;
44078;SDS011;29744;49.078;12.878;2023-07-13T04:57:20;1.30;;;0.70;;
44078;SDS011;29744;49.078;12.878;2023-07-13T05:02:21;0.95;;;0.70;;
44078;SDS011;29744;49.078;12.878;2023-07-13T05:07:21;0.70;;;0.57;;
44078;SDS011;29744;49.078;12.878;2023-07-13T05:12:21;0.80;;;0.70;;
44078;SDS011;29744;49.078;12.878;2023-07-13T05:17:22;1.10;;;0.60;;
44078;SDS011;29744;49.078;12.878;2023-07-13T05:22:22;0.65;;;0.43;;
44078;SDS011;29744;49.078;12.878;2023-07-13T05:27:23;0.77;;;0.60;;
44078;SDS011;29744;49.078;12.878;2023-07-13T05:32:23;0.80;;;0.60;;
44078;SDS011;29744;49.078;12.878;2023-07-13T05:37:23;2.33;;;0.90;;
44078;SDS011;29744;49.078;12.878;2023-07-13T05:42:23;1.17;;;0.73;;
44078;SDS011;29744;49.078;12.878;2023-07-13T05:47:24;1.75;;;0.90;;
44078;SDS011;29744;49.078;12.878;2023-07-13T05:52:24;1.70;;;1.00;;
44078;SDS011;29744;49.078;12.878;2023-07-13T05:57:25;1.58;;;1.00;;
44078;SDS011;29744;49.078;12.878;2023-07-13T06:02:25;1.52;;;0.98;;
44078;SDS011;29744;49.078;12.878;2023-07-13T06:07:26;1.50;;;0.90;;
44078;SDS011;29744;49.078;12.878;2023-07-13T06:12:27;1.58;;;0.98;;
44078;SDS011;29744;49.078;12.878;2023-07-13T06:17:27;1.58;;;0.90;;
44078;SDS011;29744;49.078;12.878;2023-07-13T06:22:27;2.08;;;1.08;;
44078;SDS011;29744;49.078;12.878;2023-07-13T06:27:28;2.10;;;1.10;;
44078;SDS011;29744;49.078;12.878;2023-07-13T06:32:28;1.63;;;1.02;;
44078;SDS011;29744;49.078;12.878;2023-07-13T06:37:28;4.28;;;1.10;;
44078;SDS011;29744;49.078;12.878;2023-07-13T06:42:29;1.17;;;0.80;;
44078;SDS011;29744;49.078;12.878;2023-07-13T06:47:29;1.35;;;0.95;;
44078;SDS011;29744;49.078;12.878;2023-07-13T06:52:29;1.58;;;1.00;;
44078;SDS011;29744;49.078;12.878;2023-07-13T06:57:29;1.50;;;0.95;;
44078;SDS011;29744;49.078;12.878;2023-07-13T07:02:30;1.40;;;0.90;;
44078;SDS011;29744;49.078;12.878;2023-07-13T07:07:30;1.33;;;0.93;;
44078;SDS011;29744;49.078;12.878;2023-07-13T07:12:30;1.70;;;1.10;;
44078;SDS011;29744;49.078;12.878;2023-07-13T07:17:30;1.70;;;1.20;;
44078;SDS011;29744;49.078;12.878;2023-07-13T07:22:31;2.43;;;1.50;;
44078;SDS011;29744;49.078;12.878;2023-07-13T07:27:32;2.80;;;1.40;;
44078;SDS011;29744;49.078;12.878;2023-07-13T07:32:32;2.15;;;1.42;;
44078;SDS011;29744;49.078;12.878;2023-07-13T07:37:32;2.33;;;1.50;;
44078;SDS011;29744;49.078;12.878;2023-07-13T07:42:33;2.65;;;1.48;;
44078;SDS011;29744;49.078;12.878;2023-07-13T07:47:35;2.72;;;1.45;;
44078;SDS011;29744;49.078;12.878;2023-07-13T07:52:35;2.58;;;1.50;;
44078;SDS011;29744;49.078;12.878;2023-07-13T07:57:36;2.42;;;1.40;;
44078;SDS011;29744;49.078;12.878;2023-07-13T08:02:36;2.40;;;1.40;;
44078;SDS011;29744;49.078;12.878;2023-07-13T08:07:36;2.40;;;1.60;;
44078;SDS011;29744;49.078;12.878;2023-07-13T08:12:38;3.20;;;1.60;;
44078;SDS011;29744;49.078;12.878;2023-07-13T08:17:39;3.20;;;1.60;;
44078;SDS011;29744;49.078;12.878;2023-07-13T08:22:39;2.92;;;1.50;;
44078;SDS011;29744;49.078;12.878;2023-07-13T08:27:40;3.88;;;1.50;;
44078;SDS011;29744;49.078;12.878;2023-07-13T08:32:40;2.97;;;1.55;;
44078;SDS011;29744;49.078;12.878;2023-07-13T08:37:40;3.15;;;1.50;;
44078;SDS011;29744;49.078;12.878;2023-07-13T08:42:54;2.65;;;1.60;;
44078;SDS011;29744;49.078;12.878;2023-07-13T08:47:58;2.73;;;1.60;;
44078;SDS011;29744;49.078;12.878;2023-07-13T08:53:03;3.60;;;1.70;;
44078;SDS011;29744;49.078;12.878;2023-07-13T08:58:11;2.10;;;1.30;;
44078;SDS011;29744;49.078;12.878;2023-07-13T09:03:18;2.28;;;1.42;;
44078;SDS011;29744;49.078;12.878;2023-07-13T09:08:33;2.25;;;1.40;;
44078;SDS011;29744;49.078;12.878;2023-07-13T09:13:54;2.90;;;1.80;;
44078;SDS011;29744;49.078;12.878;2023-07-13T09:19:26;2.30;;;1.40;;
44078;SDS011;29744;49.078;12.878;2023-07-13T09:29:41;3.25;;;1.50;;
44078;SDS011;29744;49.078;12.878;2023-07-13T09:34:51;3.60;;;1.83;;
44078;SDS011;29744;49.078;12.878;2023-07-13T09:39:54;3.47;;;1.27;;
44078;SDS011;29744;49.078;12.878;2023-07-13T09:44:59;2.70;;;1.27;;
44078;SDS011;29744;49.078;12.878;2023-07-13T09:50:03;2.55;;;1.35;;
44078;SDS011;29744;49.078;12.878;2023-07-13T09:55:26;2.78;;;1.50;;
44078;SDS011;29744;49.078;12.878;2023-07-13T10:00:35;2.35;;;1.40;;
44078;SDS011;29744;49.078;12.878;2023-07-13T10:05:39;2.40;;;1.40;;
44078;SDS011;29744;49.078;12.878;2023-07-13T10:10:41;3.03;;;1.50;;
44078;SDS011;29744;49.078;12.878;2023-07-13T10:15:41;2.83;;;1.40;;
44078;SDS011;29744;49.078;12.878;2023-07-13T10:20:42;2.72;;;1.17;;
44078;SDS011;29744;49.078;12.878;2023-07-13T10:25:43;2.90;;;1.25;;
44078;SDS011;29744;49.078;12.878;2023-07-13T10:30:46;2.05;;;1.20;;
44078;SDS011;29744;49.078;12.878;2023-07-13T10:35:48;1.92;;;1.30;;
44078;SDS011;29744;49.078;12.878;2023-07-13T10:46:01;2.03;;;1.20;;
44078;SDS011;29744;49.078;12.878;2023-07-13T10:51:03;2.92;;;1.17;;
44078;SDS011;29744;49.078;12.878;2023-07-13T10:56:40;2.17;;;1.20;;
44078;SDS011;29744;49.078;12.878;2023-07-13T11:06:59;2.20;;;1.35;;
44078;SDS011;29744;49.078;12.878;2023-07-13T11:17:29;2.03;;;1.10;;
44078;SDS011;29744;49.078;12.878;2023-07-13T11:33:22;2.13;;;1.30;;
44078;SDS011;29744;49.078;12.878;2023-07-13T11:43:32;2.00;;;1.08;;
44078;SDS011;29744;49.078;12.878;2023-07-13T11:48:33;2.17;;;1.20;;
44078;SDS011;29744;49.078;12.878;2023-07-13T11:53:37;1.67;;;1.05;;
44078;SDS011;29744;49.078;12.878;2023-07-13T11:58:40;2.22;;;1.02;;
44078;SDS011;29744;49.078;12.878;2023-07-13T12:03:41;1.55;;;1.00;;
44078;SDS011;29744;49.078;12.878;2023-07-13T12:08:42;1.77;;;0.93;;
44078;SDS011;29744;49.078;12.878;2023-07-13T12:13:43;2.28;;;1.20;;
44078;SDS011;29744;49.078;12.878;2023-07-13T12:18:44;1.60;;;1.00;;
44078;SDS011;29744;49.078;12.878;2023-07-13T12:23:48;1.35;;;1.00;;
44078;SDS011;29744;49.078;12.878;2023-07-13T12:28:53;1.63;;;0.98;;
44078;SDS011;29744;49.078;12.878;2023-07-13T12:34:30;1.88;;;1.10;;
44078;SDS011;29744;49.078;12.878;2023-07-13T12:39:29;1.42;;;1.00;;
44078;SDS011;29744;49.078;12.878;2023-07-13T12:44:34;2.47;;;1.10;;
44078;SDS011;29744;49.078;12.878;2023-07-13T12:49:42;1.58;;;0.95;;
44078;SDS011;29744;49.078;12.878;2023-07-13T12:54:57;2.00;;;1.20;;
44078;SDS011;29744;49.078;12.878;2023-07-13T13:00:00;2.85;;;1.20;;
44078;SDS011;29744;49.078;12.878;2023-07-13T13:05:04;2.08;;;1.10;;
44078;SDS011;29744;49.078;12.878;2023-07-13T13:10:11;1.88;;;1.20;;
44078;SDS011;29744;49.078;12.878;2023-07-13T13:15:12;1.58;;;1.02;;
44078;SDS011;29744;49.078;12.878;2023-07-13T13:20:22;1.50;;;0.88;;
44078;SDS011;29744;49.078;12.878;2023-07-13T13:25:23;1.55;;;0.98;;
44078;SDS011;29744;49.078;12.878;2023-07-13T13:30:23;2.05;;;1.10;;
44078;SDS011;29744;49.078;12.878;2023-07-13T13:35:24;1.83;;;1.00;;
44078;SDS011;29744;49.078;12.878;2023-07-13T13:40:26;1.60;;;0.90;;
44078;SDS011;29744;49.078;12.878;2023-07-13T13:45:27;1.42;;;1.00;;
44078;SDS011;29744;49.078;12.878;2023-07-13T13:50:27;1.95;;;1.33;;
44078;SDS011;29744;49.078;12.878;2023-07-13T13:55:28;1.42;;;0.93;;
44078;SDS011;29744;49.078;12.878;2023-07-13T14:00:28;1.60;;;0.93;;
44078;SDS011;29744;49.078;12.878;2023-07-13T14:05:29;1.00;;;0.82;;
44078;SDS011;29744;49.078;12.878;2023-07-13T14:10:30;1.50;;;1.00;;
44078;SDS011;29744;49.078;12.878;2023-07-13T14:15:30;1.05;;;0.85;;
44078;SDS011;29744;49.078;12.878;2023-07-13T14:20:31;1.42;;;0.95;;
44078;SDS011;29744;49.078;12.878;2023-07-13T14:25:31;2.17;;;1.10;;
44078;SDS011;29744;49.078;12.878;2023-07-13T14:30:31;1.30;;;0.98;;
44078;SDS011;29744;49.078;12.878;2023-07-13T14:35:32;1.02;;;0.80;;
44078;SDS011;29744;49.078;12.878;2023-07-13T14:40:33;1.48;;;0.88;;
44078;SDS011;29744;49.078;12.878;2023-07-13T14:45:33;1.50;;;0.95;;
44078;SDS011;29744;49.078;12.878;2023-07-13T14:50:34;1.33;;;0.90;;
44078;SDS011;29744;49.078;12.878;2023-07-13T14:55:36;1.15;;;0.90;;
44078;SDS011;29744;49.078;12.878;2023-07-13T15:00:36;1.88;;;0.95;;
44078;SDS011;29744;49.078;12.878;2023-07-13T15:05:37;1.63;;;1.10;;
44078;SDS011;29744;49.078;12.878;2023-07-13T15:10:37;1.80;;;1.00;;
44078;SDS011;29744;49.078;12.878;2023-07-13T15:15:37;1.88;;;1.02;;
44078;SDS011;29744;49.078;12.878;2023-07-13T15:20:40;1.48;;;0.90;;
44078;SDS011;29744;49.078;12.878;2023-07-13T15:25:41;1.15;;;0.75;;
44078;SDS011;29744;49.078;12.878;2023-07-13T15:30:44;1.77;;;1.00;;
44078;SDS011;29744;49.078;12.878;2023-07-13T15:35:47;1.65;;;1.02;;
44078;SDS011;29744;49.078;12.878;2023-07-13T15:40:49;1.83;;;1.00;;
44078;SDS011;29744;49.078;12.878;2023-07-13T15:45:50;1.10;;;0.90;;
44078;SDS011;29744;49.078;12.878;2023-07-13T15:50:52;1.77;;;0.90;;
44078;SDS011;29744;49.078;12.878;2023-07-13T15:55:54;1.48;;;0.90;;
44078;SDS011;29744;49.078;12.878;2023-07-13T16:00:55;2.30;;;1.10;;
44078;SDS011;29744;49.078;12.878;2023-07-13T16:05:55;1.40;;;0.90;;
44078;SDS011;29744;49.078;12.878;2023-07-13T16:10:55;1.48;;;1.05;;
44078;SDS011;29744;49.078;12.878;2023-07-13T16:15:56;1.70;;;1.00;;
44078;SDS011;29744;49.078;12.878;2023-07-13T16:20:57;1.55;;;0.93;;
44078;SDS011;29744;49.078;12.878;2023-07-13T16:25:58;1.73;;;1.00;;
44078;SDS011;29744;49.078;12.878;2023-07-13T16:30:59;1.50;;;1.00;;
44078;SDS011;29744;49.078;12.878;2023-07-13T16:36:02;1.90;;;0.90;;
44078;SDS011;29744;49.078;12.878;2023-07-13T16:41:02;1.30;;;0.90;;
44078;SDS011;29744;49.078;12.878;2023-07-13T16:46:03;1.50;;;0.95;;
44078;SDS011;29744;49.078;12.878;2023-07-13T16:51:04;1.88;;;1.05;;
44078;SDS011;29744;49.078;12.878;2023-07-13T16:56:08;1.90;;;1.00;;
44078;SDS011;29744;49.078;12.878;2023-07-13T17:01:15;1.80;;;1.00;;
44078;SDS011;29744;49.078;12.878;2023-07-13T17:06:19;2.17;;;1.00;;
44078;SDS011;29744;49.078;12.878;2023-07-13T17:11:23;1.80;;;1.00;;
44078;SDS011;29744;49.078;12.878;2023-07-13T17:16:26;1.50;;;1.00;;
44078;SDS011;29744;49.078;12.878;2023-07-13T17:21:27;1.42;;;0.85;;
44078;SDS011;29744;49.078;12.878;2023-07-13T17:26:28;2.03;;;1.10;;
44078;SDS011;29744;49.078;12.878;2023-07-13T17:31:29;2.00;;;0.90;;
44078;SDS011;29744;49.078;12.878;2023-07-13T17:36:30;1.67;;;1.00;;
44078;SDS011;29744;49.078;12.878;2023-07-13T17:41:32;1.48;;;0.98;;
44078;SDS011;29744;49.078;12.878;2023-07-13T17:46:32;1.42;;;0.90;;
44078;SDS011;29744;49.078;12.878;2023-07-13T17:51:34;2.35;;;1.00;;
44078;SDS011;29744;49.078;12.878;2023-07-13T17:56:37;1.77;;;1.00;;
44078;SDS011;29744;49.078;12.878;2023-07-13T18:01:37;2.70;;;1.10;;
44078;SDS011;29744;49.078;12.878;2023-07-13T18:06:41;1.27;;;0.90;;
44078;SDS011;29744;49.078;12.878;2023-07-13T18:11:52;1.27;;;0.88;;
44078;SDS011;29744;49.078;12.878;2023-07-13T18:16:55;1.30;;;0.80;;
44078;SDS011;29744;49.078;12.878;2023-07-13T18:22:02;1.92;;;1.20;;
44078;SDS011;29744;49.078;12.878;2023-07-13T18:27:10;2.10;;;1.42;;
44078;SDS011;29744;49.078;12.878;2023-07-13T18:32:15;1.38;;;0.80;;
44078;SDS011;29744;49.078;12.878;2023-07-13T18:37:20;1.20;;;0.80;;
44078;SDS011;29744;49.078;12.878;2023-07-13T18:42:22;1.10;;;0.90;;
44078;SDS011;29744;49.078;12.878;2023-07-13T18:47:24;1.30;;;0.80;;
44078;SDS011;29744;49.078;12.878;2023-07-13T18:52:25;1.58;;;0.90;;
44078;SDS011;29744;49.078;12.878;2023-07-13T18:57:25;1.83;;;0.88;;
44078;SDS011;29744;49.078;12.878;2023-07-13T19:02:25;1.70;;;1.00;;
44078;SDS011;29744;49.078;12.878;2023-07-13T19:07:26;1.08;;;0.70;;
44078;SDS011;29744;49.078;12.878;2023-07-13T19:12:26;1.35;;;0.80;;
44078;SDS011;29744;49.078;12.878;2023-07-13T19:17:30;1.10;;;0.82;;
44078;SDS011;29744;49.078;12.878;2023-07-13T19:22:31;1.50;;;0.70;;
44078;SDS011;29744;49.078;12.878;2023-07-13T19:27:31;1.23;;;0.80;;
44078;SDS011;29744;49.078;12.878;2023-07-13T19:32:32;1.40;;;0.90;;
44078;SDS011;29744;49.078;12.878;2023-07-13T19:37:33;1.42;;;0.90;;
44078;SDS011;29744;49.078;12.878;2023-07-13T19:42:36;1.92;;;0.95;;
44078;SDS011;29744;49.078;12.878;2023-07-13T19:47:37;1.10;;;0.80;;
44078;SDS011;29744;49.078;12.878;2023-07-13T19:52:37;1.13;;;0.80;;
44078;SDS011;29744;49.078;12.878;2023-07-13T19:57:50;1.30;;;0.90;;
44078;SDS011;29744;49.078;12.878;2023-07-13T20:02:52;1.00;;;0.70;;
44078;SDS011;29744;49.078;12.878;2023-07-13T20:07:54;0.98;;;0.70;;
44078;SDS011;29744;49.078;12.878;2023-07-13T20:12:57;0.90;;;0.75;;
44078;SDS011;29744;49.078;12.878;2023-07-13T20:18:01;0.80;;;0.70;;
44078;SDS011;29744;49.078;12.878;2023-07-13T20:23:08;1.50;;;0.82;;
44078;SDS011;29744;49.078;12.878;2023-07-13T20:28:11;0.90;;;0.70;;
44078;SDS011;29744;49.078;12.878;2023-07-13T20:33:16;1.43;;;0.80;;
44078;SDS011;29744;49.078;12.878;2023-07-13T20:38:22;0.93;;;0.60;;
44078;SDS011;29744;49.078;12.878;2023-07-13T20:43:22;0.70;;;0.70;;
44078;SDS011;29744;49.078;12.878;2023-07-13T20:48:27;1.25;;;0.70;;
44078;SDS011;29744;49.078;12.878;2023-07-13T20:53:36;0.65;;;0.50;;
44078;SDS011;29744;49.078;12.878;2023-07-13T20:58:37;1.02;;;0.70;;
44078;SDS011;29744;49.078;12.878;2023-07-13T21:03:37;1.23;;;0.73;;
44078;SDS011;29744;49.078;12.878;2023-07-13T21:08:37;1.40;;;0.87;;
44078;SDS011;29744;49.078;12.878;2023-07-13T21:13:38;1.05;;;0.80;;
44078;SDS011;29744;49.078;12.878;2023-07-13T21:18:38;1.30;;;0.82;;
44078;SDS011;29744;49.078;12.878;2023-07-13T21:23:39;1.00;;;0.70;;
44078;SDS011;29744;49.078;12.878;2023-07-13T21:28:40;0.98;;;0.80;;
44078;SDS011;29744;49.078;12.878;2023-07-13T21:33:43;0.90;;;0.70;;
44078;SDS011;29744;49.078;12.878;2023-07-13T21:38:43;1.20;;;0.60;;
44078;SDS011;29744;49.078;12.878;2023-07-13T21:43:45;1.00;;;0.75;;
44078;SDS011;29744;49.078;12.878;2023-07-13T21:48:46;0.80;;;0.63;;
44078;SDS011;29744;49.078;12.878;2023-07-13T21:53:47;1.00;;;0.77;;
44078;SDS011;29744;49.078;12.878;2023-07-13T21:58:48;0.77;;;0.70;;
44078;SDS011;29744;49.078;12.878;2023-07-13T22:03:55;0.90;;;0.73;;
44078;SDS011;29744;49.078;12.878;2023-07-13T22:08:57;1.13;;;0.70;;
44078;SDS011;29744;49.078;12.878;2023-07-13T22:13:57;0.73;;;0.70;;
44078;SDS011;29744;49.078;12.878;2023-07-13T22:18:59;1.07;;;0.70;;
44078;SDS011;29744;49.078;12.878;2023-07-13T22:24:02;0.65;;;0.60;;
44078;SDS011;29744;49.078;12.878;2023-07-13T22:29:09;0.52;;;0.50;;
44078;SDS011;29744;49.078;12.878;2023-07-13T22:34:16;0.80;;;0.60;;
44078;SDS011;29744;49.078;12.878;2023-07-13T22:39:19;1.00;;;0.80;;
44078;SDS011;29744;49.078;12.878;2023-07-13T22:44:26;0.90;;;0.68;;
44078;SDS011;29744;49.078;12.878;2023-07-13T22:49:27;1.17;;;0.70;;
44078;SDS011;29744;49.078;12.878;2023-07-13T22:54:29;0.65;;;0.57;;
44078;SDS011;29744;49.078;12.878;2023-07-13T22:59:30;0.75;;;0.50;;
44078;SDS011;29744;49.078;12.878;2023-07-13T23:04:35;0.70;;;0.50;;
44078;SDS011;29744;49.078;12.878;2023-07-13T23:09:36;0.90;;;0.68;;
44078;SDS011;29744;49.078;12.878;2023-07-13T23:14:36;0.57;;;0.57;;
44078;SDS011;29744;49.078;12.878;2023-07-13T23:19:36;0.50;;;0.50;;
44078;SDS011;29744;49.078;12.878;2023-07-13T23:24:37;0.88;;;0.60;;
44078;SDS011;29744;49.078;12.878;2023-07-13T23:29:37;0.70;;;0.60;;
44078;SDS011;29744;49.078;12.878;2023-07-13T23:34:38;0.75;;;0.50;;
44078;SDS011;29744;49.078;12.878;2023-07-13T23:39:38;1.80;;;0.63;;
44078;SDS011;29744;49.078;12.878;2023-07-13T23:44:38;0.90;;;0.70;;
44078;SDS011;29744;49.078;12.878;2023-07-13T23:49:38;1.02;;;0.80;;
44078;SDS011;29744;49.078;12.878;2023-07-13T23:54:40;1.05;;;0.60;;
44078;SDS011;29744;49.078;12.878;2023-07-13T23:59:40;0.90;;;0.68;;
